Tropical Cyclones
[Index]
Main Index Home Page Stock Weather Photos Extreme Storms Discussion Storm News and Storm Chasing Reports Tropical Cyclones / Hurricanes / Typhoons Weather Data and Links Wild Fires / Bushfires Weather Observation Techniques Weather Picture Catalogue Tornado Pictures and Reports Stock Video Footage and DVDs for sale
Season 1989-1990 Tropical Cyclone RAE Track Map
Season 1989-1990 Summaries: [BoM-AU] [JTWC-AU] [JTWC-SIO] [JTWC-SPAC] [JTWC-SH]
<<- Previous TC | JTWC 1989-1990 Season | Next TC ->>

click for intensity scale information  Lat/long Grid: Show Hide

 Date Labels: Show Hide

Joint Typhoon Warning Centre Cyclone Data

Name: RAE

17 Mar 1990 06:00 UTC to 24 Mar 1990 06:00 UTC

    date/time    lat    long     hPa   cat  kts
1990-03-17 06   12.0   165.0                  20          
1990-03-17 12   12.6   165.4                  20          
1990-03-17 18   12.8   166.2                  20          
1990-03-18 00   12.6   166.8                  20          
1990-03-18 06   12.0   167.0                  20          
1990-03-18 12   11.6   166.7                  20          
1990-03-18 18   11.5   166.4                  20          
1990-03-19 00   11.7   166.0                  20          
1990-03-19 06   12.0   166.0                  20          
1990-03-19 12   12.2   166.1                  20          
1990-03-19 18   12.4   166.2                  20          
1990-03-20 00   12.6   166.4                  20          
1990-03-20 06   12.9   167.0                  20          
1990-03-20 12   13.6   169.1                  20          
1990-03-20 18   15.2   171.8                  20          
1990-03-21 00   16.6   173.4                  25          
1990-03-21 06   17.6   173.8                  25          
1990-03-21 12   18.6   173.7                  25          
1990-03-21 18   19.5   173.5                  30          
1990-03-22 00   20.2   173.5                  35          
1990-03-22 06   21.0   173.6                  35          
1990-03-22 12   21.6   173.9                  35          
1990-03-22 18   21.7   174.8                  35          
1990-03-23 00   21.8   176.1                  35          
1990-03-23 06   22.0   178.1                  35          
1990-03-23 12   22.5   179.5W                 35          
1990-03-23 18   23.3   177.0W           1     40          
1990-03-24 00   24.0   174.5W           1     40          
1990-03-24 06   25.3   171.1W           1     40          
Winds are 1-min average.

Tropical cyclone tracks developed by Michael Bath using data from the Joint Typhoon Warning Centre Best Tracks and Google Maps.


[Australian Severe Weather index] [Copyright Notice] [Email Contacts] [Search This Site] [Privacy Policy]
Document: tropical_cyclone_rae.htm Updated: 18 September 2016